createdAt,value
2023-04-25T00:02:01.004Z,80.54
2023-04-25T00:04:07.748Z,81.02
2023-04-25T00:06:12.994Z,80.68
2023-04-25T00:08:20.727Z,81.25
2023-04-25T00:10:26.138Z,81.49
2023-04-25T00:12:31.270Z,81.67
2023-04-25T00:14:39.276Z,82.08
2023-04-25T00:16:45.426Z,82.26
2023-04-25T00:18:52.649Z,82.22
2023-04-25T00:20:57.920Z,81.78
2023-04-25T00:23:03.018Z,82.09
2023-04-25T00:25:11.715Z,81.76
2023-04-25T00:27:18.308Z,81.94
2023-04-25T00:29:23.324Z,82.44
2023-04-25T00:31:28.698Z,82.06
2023-04-25T00:33:33.620Z,82.19
2023-04-25T00:35:38.883Z,82.39
2023-04-25T00:37:43.959Z,82.56
2023-04-25T00:39:48.970Z,82.60
2023-04-25T00:41:58.123Z,82.92
2023-04-25T00:44:05.396Z,82.81
2023-04-25T00:46:10.353Z,82.90
2023-04-25T00:48:20.880Z,82.81
2023-04-25T00:50:33.998Z,82.64
2023-04-25T00:52:51.026Z,82.90
2023-04-25T00:55:02.124Z,83.39
2023-04-25T00:57:13.297Z,83.32
2023-04-25T00:59:29.729Z,83.05
2023-04-25T01:01:38.822Z,83.19
2023-04-25T01:03:44.913Z,83.06
2023-04-25T01:05:54.854Z,82.38
2023-04-25T01:08:04.538Z,82.48
2023-04-25T01:10:24.465Z,81.97
2023-04-25T01:12:39.196Z,81.66
2023-04-25T01:14:48.768Z,81.94
2023-04-25T01:17:02.215Z,81.14
2023-04-25T01:19:13.682Z,81.50
2023-04-25T01:21:32.208Z,81.82
2023-04-25T01:23:39.527Z,81.64
2023-04-25T01:25:44.846Z,81.36
2023-04-25T01:27:50.344Z,80.27
2023-04-25T01:29:55.720Z,80.40
2023-04-25T01:32:02.242Z,80.95
2023-04-25T01:34:07.366Z,79.91
2023-04-25T01:36:13.031Z,79.21
2023-04-25T01:38:20.592Z,78.98
2023-04-25T01:40:26.273Z,78.67
2023-04-25T01:42:31.543Z,77.62
2023-04-25T01:44:36.683Z,77.62
2023-04-25T01:46:41.730Z,78.34
2023-04-25T01:48:46.780Z,77.96
2023-04-25T01:50:52.555Z,78.11
2023-04-25T01:52:58.436Z,77.68
2023-04-25T01:55:07.084Z,77.71
2023-04-25T01:57:11.936Z,77.98
2023-04-25T01:59:16.891Z,78.04
2023-04-25T02:01:24.838Z,78.10
2023-04-25T02:03:31.197Z,78.72
2023-04-25T02:05:39.683Z,78.92
2023-04-25T02:07:44.629Z,78.63
2023-04-25T02:09:49.704Z,78.27
2023-04-25T02:11:57.246Z,78.20
2023-04-25T02:14:03.390Z,78.74
2023-04-25T02:16:09.423Z,78.11
2023-04-25T02:18:14.591Z,78.95
2023-04-25T02:20:21.113Z,78.78
2023-04-25T02:22:25.995Z,77.29
2023-04-25T02:24:31.253Z,77.60
2023-04-25T02:26:37.939Z,79.19
2023-04-25T02:28:45.676Z,76.89
2023-04-25T02:30:50.618Z,78.30
2023-04-25T02:32:55.676Z,79.39
2023-04-25T02:35:04.994Z,78.60
2023-04-25T02:37:09.920Z,79.54
2023-04-25T02:39:14.854Z,79.44
2023-04-25T02:41:19.860Z,80.09
2023-04-25T02:43:24.764Z,80.12
2023-04-25T02:45:32.207Z,81.18
2023-04-25T02:47:38.423Z,81.62
2023-04-25T02:49:43.430Z,83.13
2023-04-25T02:51:50.456Z,82.47
2023-04-25T02:53:56.288Z,82.95
2023-04-25T02:56:06.197Z,82.13
2023-04-25T02:58:14.918Z,82.88
2023-04-25T03:00:25.630Z,81.98
2023-04-25T03:02:36.919Z,82.22
2023-04-25T03:04:42.146Z,80.23
2023-04-25T03:06:47.631Z,79.65
2023-04-25T03:08:54.402Z,77.97
2023-04-25T03:10:59.703Z,77.52
2023-04-25T03:13:04.593Z,76.77
2023-04-25T03:15:12.043Z,76.62
2023-04-25T03:17:18.635Z,75.43
2023-04-25T03:19:26.628Z,75.66
2023-04-25T03:21:33.276Z,76.15
2023-04-25T03:23:39.924Z,75.14
2023-04-25T03:25:47.034Z,76.57
2023-04-25T03:27:54.214Z,75.61
2023-04-25T03:30:03.736Z,76.68
2023-04-25T03:32:09.658Z,77.06
2023-04-25T03:34:15.924Z,76.41
2023-04-25T03:36:25.931Z,76.61
2023-04-25T03:38:33.144Z,77.29
2023-04-25T03:40:38.720Z,76.96
2023-04-25T03:42:45.140Z,76.76
2023-04-25T03:44:51.178Z,77.28
2023-04-25T03:46:59.866Z,77.41
2023-04-25T03:49:06.806Z,77.03
2023-04-25T03:51:12.137Z,77.65
2023-04-25T03:53:24.952Z,77.69
2023-04-25T03:55:31.889Z,77.24
2023-04-25T03:57:39.869Z,77.25
2023-04-25T03:59:48.326Z,76.91
2023-04-25T04:01:55.326Z,76.99
2023-04-25T04:04:01.047Z,76.97
2023-04-25T04:06:13.102Z,76.43
2023-04-25T04:08:27.395Z,76.63
2023-04-25T04:10:36.906Z,76.30
2023-04-25T04:12:48.047Z,76.72
2023-04-25T04:14:55.326Z,76.73
2023-04-25T04:17:02.078Z,77.12
2023-04-25T04:19:13.656Z,77.73
2023-04-25T04:21:29.498Z,77.09
2023-04-25T04:23:40.021Z,76.63
2023-04-25T04:25:51.177Z,77.25
2023-04-25T04:28:15.323Z,77.05
2023-04-25T04:30:28.244Z,76.61
2023-04-25T04:32:41.179Z,75.98
2023-04-25T04:37:20.249Z,76.76
2023-04-25T04:39:31.718Z,75.87
2023-04-25T04:41:48.789Z,75.69
2023-04-25T04:44:02.469Z,75.85
2023-04-25T04:46:07.588Z,74.33
2023-04-25T04:48:15.468Z,74.10
2023-04-25T04:50:21.159Z,73.85
2023-04-25T04:52:26.072Z,73.41
2023-04-25T04:54:33.837Z,74.46
2023-04-25T04:56:38.596Z,74.24
2023-04-25T04:58:43.526Z,74.83
2023-04-25T05:00:50.278Z,75.03
2023-04-25T05:02:55.759Z,75.88
2023-04-25T05:05:00.797Z,77.08
2023-04-25T05:07:05.708Z,78.48
2023-04-25T05:09:10.536Z,79.35
2023-04-25T05:11:19.336Z,79.50
2023-04-25T05:13:24.550Z,79.61
2023-04-25T05:15:29.529Z,80.01
2023-04-25T05:17:34.411Z,80.64
2023-04-25T05:19:40.605Z,80.56
2023-04-25T05:21:45.646Z,80.49
2023-04-25T05:23:51.046Z,80.50
2023-04-25T05:25:56.283Z,80.02
2023-04-25T05:28:03.836Z,80.51
2023-04-25T05:30:10.276Z,78.78
2023-04-25T05:32:15.376Z,78.68
2023-04-25T05:34:22.801Z,78.11
2023-04-25T05:36:34.683Z,77.85
2023-04-25T05:38:50.159Z,78.27
2023-04-25T05:40:58.049Z,76.42
2023-04-25T05:43:05.792Z,76.56
2023-04-25T05:45:15.783Z,76.88
2023-04-25T05:47:29.739Z,75.54
2023-04-25T05:49:57.658Z,75.31
2023-04-25T05:55:11.574Z,75.53
2023-04-25T05:57:42.518Z,75.81
2023-04-25T06:05:30.994Z,73.59
2023-04-25T06:08:11.706Z,73.73
2023-04-25T06:10:20.423Z,74.68
2023-04-25T06:12:28.580Z,74.67
2023-04-25T06:14:53.905Z,76.54
2023-04-25T06:17:07.443Z,78.01
2023-04-25T06:19:35.035Z,78.81
2023-04-25T06:21:40.443Z,80.03
2023-04-25T06:23:45.475Z,79.59
2023-04-25T06:25:52.316Z,79.63
2023-04-25T06:27:57.275Z,79.55
2023-04-25T06:30:03.004Z,78.29
2023-04-25T06:32:10.749Z,78.76
2023-04-25T06:34:17.514Z,78.86
2023-04-25T06:36:26.128Z,78.94
2023-04-25T06:38:31.164Z,78.53
2023-04-25T06:40:36.571Z,78.79
2023-04-25T06:42:46.017Z,78.04
2023-04-25T06:44:52.367Z,78.38
2023-04-25T06:46:57.623Z,77.74
2023-04-25T06:51:52.115Z,76.12
2023-04-25T06:54:01.873Z,76.94
2023-04-25T06:56:15.465Z,77.13
2023-04-25T06:58:27.909Z,76.33
2023-04-25T07:00:39.416Z,76.25
2023-04-25T07:02:54.782Z,74.67
2023-04-25T07:05:05.408Z,74.16
2023-04-25T07:07:13.892Z,75.09
2023-04-25T07:09:26.688Z,73.86
2023-04-25T07:11:31.789Z,72.26
2023-04-25T07:13:40.997Z,73.23
2023-04-25T07:15:52.407Z,72.87
2023-04-25T07:18:10.578Z,72.91
2023-04-25T07:20:29.284Z,72.54
2023-04-25T07:22:37.182Z,70.15
2023-04-25T07:24:42.805Z,68.85
2023-04-25T07:26:48.160Z,67.18
2023-04-25T07:28:53.199Z,66.46
2023-04-25T07:30:59.391Z,66.63
2023-04-25T07:33:04.925Z,66.95
2023-04-25T07:35:11.261Z,64.67
2023-04-25T07:37:26.612Z,65.25
2023-04-25T07:39:34.942Z,67.68
2023-04-25T07:41:49.751Z,67.31
2023-04-25T07:43:54.871Z,64.76
2023-04-25T07:46:00.645Z,63.13
2023-04-25T07:48:08.232Z,62.31
2023-04-25T07:50:22.250Z,61.13
2023-04-25T07:52:29.919Z,58.75
2023-04-25T07:54:35.278Z,58.75
2023-04-25T07:56:52.190Z,56.55
2023-04-25T07:59:03.798Z,55.03
2023-04-25T08:01:09.076Z,52.08
2023-04-25T08:03:14.160Z,54.23
2023-04-25T08:05:22.984Z,54.89
2023-04-25T08:07:32.308Z,56.15
2023-04-25T08:09:38.803Z,55.71
2023-04-25T08:11:46.770Z,55.13
2023-04-25T08:13:56.722Z,57.55
2023-04-25T08:16:20.636Z,59.69
2023-04-25T08:18:33.261Z,60.27
2023-04-25T08:20:50.048Z,58.68
2023-04-25T08:23:01.686Z,59.22
2023-04-25T08:25:15.217Z,58.76
2023-04-25T08:27:25.694Z,58.67
2023-04-25T08:29:50.998Z,56.12
2023-04-25T08:31:59.989Z,54.82
2023-04-25T08:34:09.398Z,54.04
2023-04-25T08:36:52.080Z,53.80
2023-04-25T08:39:38.651Z,51.85
2023-04-25T08:42:07.604Z,55.16
2023-04-25T08:44:28.153Z,60.24
2023-04-25T08:46:39.962Z,60.88
2023-04-25T08:48:48.503Z,61.74
2023-04-25T08:50:55.432Z,62.59
2023-04-25T08:53:08.800Z,61.09
2023-04-25T08:55:20.264Z,59.84
2023-04-25T08:57:26.714Z,60.41
2023-04-25T08:59:32.544Z,58.92
2023-04-25T09:01:38.825Z,59.31
2023-04-25T09:03:52.296Z,57.36
2023-04-25T09:05:59.436Z,54.95
2023-04-25T09:08:04.871Z,53.88
2023-04-25T09:10:10.538Z,52.29
2023-04-25T09:12:18.633Z,53.62
2023-04-25T09:14:31.564Z,51.84
2023-04-25T09:16:38.247Z,52.55
2023-04-25T09:18:48.342Z,51.08
2023-04-25T09:21:00.911Z,51.58
2023-04-25T09:23:08.494Z,51.52
2023-04-25T09:25:15.817Z,52.15
2023-04-25T09:27:28.275Z,50.97
2023-04-25T09:29:34.470Z,52.66
2023-04-25T09:31:40.186Z,54.15
2023-04-25T09:33:45.456Z,55.08
2023-04-25T09:35:56.652Z,52.81
2023-04-25T09:38:01.639Z,54.41
2023-04-25T09:40:11.625Z,57.03
2023-04-25T09:42:20.369Z,53.69
2023-04-25T09:44:30.255Z,52.06
2023-04-25T09:46:48.352Z,51.19
2023-04-25T09:48:55.232Z,51.55
2023-04-25T09:51:10.664Z,51.54
2023-04-25T09:53:16.267Z,51.06
2023-04-25T09:55:24.667Z,50.54
2023-04-25T09:57:29.900Z,50.17
2023-04-25T09:59:42.839Z,52.17
2023-04-25T10:01:48.326Z,53.05
2023-04-25T10:03:56.214Z,53.95
2023-04-25T10:06:04.374Z,54.68
2023-04-25T10:08:11.335Z,56.40
2023-04-25T10:10:20.372Z,57.45
2023-04-25T10:12:25.995Z,58.82
2023-04-25T10:14:31.054Z,60.03
2023-04-25T10:16:40.091Z,58.52
2023-04-25T10:18:45.220Z,59.07
2023-04-25T10:20:51.191Z,56.06
2023-04-25T10:22:59.710Z,61.24
2023-04-25T10:25:05.648Z,63.88
2023-04-25T10:27:11.394Z,66.08
2023-04-25T10:29:27.190Z,65.92
2023-04-25T10:31:34.244Z,65.98
2023-04-25T10:33:44.434Z,66.86
2023-04-25T10:35:49.475Z,65.97
2023-04-25T10:38:08.781Z,66.46
2023-04-25T10:40:14.633Z,63.92
2023-04-25T10:42:19.626Z,61.41
2023-04-25T10:44:24.715Z,64.44
2023-04-25T10:46:43.725Z,60.60
2023-04-25T10:48:55.468Z,58.93
2023-04-25T10:51:13.502Z,54.55
2023-04-25T10:53:23.445Z,55.80
2023-04-25T10:55:58.974Z,54.60
2023-04-25T10:58:04.830Z,54.98
2023-04-25T11:00:19.953Z,57.13
2023-04-25T11:02:33.881Z,55.45
2023-04-25T11:04:43.255Z,52.86
2023-04-25T11:07:06.427Z,53.12
2023-04-25T11:09:15.933Z,53.07
2023-04-25T11:11:24.115Z,52.66
2023-04-25T11:13:33.772Z,53.31
2023-04-25T11:15:38.715Z,53.74
2023-04-25T11:17:49.640Z,55.35
2023-04-25T11:19:58.098Z,53.56
2023-04-25T11:22:04.804Z,53.05
2023-04-25T11:24:10.418Z,53.11
2023-04-25T11:26:18.525Z,50.81
2023-04-25T11:28:26.232Z,50.71
2023-04-25T11:30:33.319Z,51.29
2023-04-25T11:32:38.903Z,51.02
2023-04-25T11:34:48.686Z,50.27
2023-04-25T11:36:56.778Z,49.83
2023-04-25T11:39:01.994Z,50.08
2023-04-25T11:41:07.120Z,51.45
2023-04-25T11:43:13.785Z,53.23
2023-04-25T11:45:22.195Z,53.77
2023-04-25T11:47:32.637Z,52.39
2023-04-25T11:49:43.198Z,52.72
2023-04-25T11:51:49.712Z,53.61
2023-04-25T11:53:57.267Z,51.69
2023-04-25T11:56:02.344Z,50.84
2023-04-25T11:58:09.896Z,51.73
2023-04-25T12:00:21.483Z,50.29
2023-04-25T12:02:29.891Z,52.10
2023-04-25T12:04:36.658Z,52.76
2023-04-25T12:06:44.142Z,51.63
2023-04-25T12:09:11.985Z,51.42
2023-04-25T12:11:24.886Z,52.33
2023-04-25T12:13:31.235Z,51.29
2023-04-25T12:15:38.597Z,49.92
2023-04-25T12:17:43.803Z,49.73
2023-04-25T12:19:54.832Z,51.76
2023-04-25T12:21:59.906Z,53.22
2023-04-25T12:24:19.335Z,52.07
2023-04-25T12:26:24.566Z,50.63
2023-04-25T12:28:33.126Z,50.18
2023-04-25T12:30:56.502Z,49.57
2023-04-25T12:33:03.336Z,47.26
2023-04-25T12:35:09.720Z,49.35
2023-04-25T12:37:15.356Z,50.22
2023-04-25T12:39:26.386Z,51.36
2023-04-25T12:41:31.239Z,50.26
2023-04-25T12:43:36.808Z,51.62
2023-04-25T12:45:41.942Z,51.21
2023-04-25T12:47:46.988Z,50.90
2023-04-25T12:49:55.206Z,51.61
2023-04-25T12:52:00.222Z,49.60
2023-04-25T12:54:05.520Z,49.36
2023-04-25T12:56:13.533Z,50.46
2023-04-25T12:58:20.532Z,50.21
2023-04-25T13:00:25.987Z,51.90
2023-04-25T13:02:31.169Z,50.15
2023-04-25T13:04:38.198Z,48.43
2023-04-25T13:06:43.463Z,49.09
2023-04-25T13:08:48.578Z,49.74
2023-04-25T13:10:53.403Z,49.36
2023-04-25T13:13:02.298Z,50.73
2023-04-25T13:15:08.729Z,51.93
2023-04-25T13:17:13.632Z,53.08
2023-04-25T13:19:21.321Z,53.68
2023-04-25T13:21:26.817Z,53.09
2023-04-25T13:23:33.310Z,53.09
2023-04-25T13:25:38.598Z,52.58
2023-04-25T13:27:45.426Z,51.27
2023-04-25T13:29:52.926Z,50.34
2023-04-25T13:31:57.868Z,49.59
2023-04-25T13:34:02.789Z,48.59
2023-04-25T13:36:08.077Z,49.19
2023-04-25T13:38:13.749Z,51.06
2023-04-25T13:40:22.878Z,50.82
2023-04-25T13:42:29.760Z,53.99
2023-04-25T13:44:34.672Z,56.28
2023-04-25T13:46:47.052Z,56.86
2023-04-25T13:48:57.719Z,56.35
2023-04-25T13:51:05.234Z,55.10
2023-04-25T13:53:10.079Z,55.63
2023-04-25T13:55:15.190Z,53.57
2023-04-25T13:57:20.415Z,52.75
2023-04-25T13:59:27.982Z,52.25
2023-04-25T14:01:35.561Z,50.64
2023-04-25T14:03:43.794Z,50.26
2023-04-25T14:05:50.193Z,51.09
2023-04-25T14:07:55.231Z,51.50
2023-04-25T14:10:00.853Z,49.25
2023-04-25T14:12:06.067Z,48.90
2023-04-25T14:14:11.105Z,48.98
2023-04-25T14:16:16.283Z,47.76
2023-04-25T14:18:22.125Z,49.37
2023-04-25T14:20:29.609Z,49.91
2023-04-25T14:22:34.480Z,48.95
2023-04-25T14:24:40.356Z,48.20
2023-04-25T14:26:45.617Z,47.69
2023-04-25T14:28:50.390Z,46.89
2023-04-25T14:30:55.297Z,48.19
2023-04-25T14:33:00.238Z,48.19
2023-04-25T14:35:05.372Z,48.64
2023-04-25T14:39:32.129Z,47.77
2023-04-25T14:41:37.116Z,47.67
2023-04-25T14:43:43.785Z,46.41
2023-04-25T14:45:51.409Z,46.50
2023-04-25T14:47:57.286Z,45.03
2023-04-25T14:50:03.120Z,46.13
2023-04-25T14:52:08.763Z,44.84
2023-04-25T14:54:18.085Z,45.08
2023-04-25T14:56:23.110Z,46.85
2023-04-25T14:58:28.312Z,47.52
2023-04-25T15:00:34.308Z,49.86
2023-04-25T15:02:40.378Z,51.61
2023-04-25T15:04:45.725Z,54.29
2023-04-25T15:06:50.702Z,60.75
2023-04-25T15:08:55.554Z,63.22
2023-04-25T15:11:03.989Z,66.14
2023-04-25T15:13:09.844Z,65.55
2023-04-25T15:15:22.615Z,63.36
2023-04-25T15:17:32.294Z,62.44
2023-04-25T15:19:38.649Z,61.62
2023-04-25T15:21:43.963Z,61.02
2023-04-25T15:23:49.641Z,58.74
2023-04-25T15:25:55.680Z,55.98
2023-04-25T15:28:04.195Z,56.58
2023-04-25T15:30:16.408Z,56.97
2023-04-25T15:32:24.553Z,57.23
2023-04-25T15:34:29.504Z,55.50
2023-04-25T15:36:34.485Z,54.86
2023-04-25T15:38:39.635Z,54.33
2023-04-25T15:40:44.809Z,52.88
2023-04-25T15:42:52.574Z,53.59
2023-04-25T15:45:00.202Z,54.17
2023-04-25T15:47:05.148Z,54.44
2023-04-25T15:49:10.215Z,54.77
2023-04-25T15:51:15.193Z,54.82
2023-04-25T15:53:20.184Z,54.58
2023-04-25T15:55:28.880Z,53.36
2023-04-25T15:57:34.022Z,51.03
2023-04-25T15:59:38.806Z,52.51
2023-04-25T16:01:46.467Z,51.75
2023-04-25T16:03:54.923Z,51.65
2023-04-25T16:06:00.058Z,52.88
2023-04-25T16:08:05.698Z,54.51
2023-04-25T16:10:13.744Z,54.63
2023-04-25T16:12:21.794Z,55.21
2023-04-25T16:14:26.931Z,56.12
2023-04-25T16:16:34.908Z,55.77
2023-04-25T16:18:43.624Z,55.21
2023-04-25T16:20:49.667Z,55.75
2023-04-25T16:22:54.560Z,56.27
2023-04-25T16:24:59.689Z,57.56
2023-04-25T16:27:04.752Z,57.44
2023-04-25T16:29:10.580Z,56.23
2023-04-25T16:31:16.860Z,57.03
2023-04-25T16:33:23.418Z,54.50
2023-04-25T16:35:32.753Z,54.21
2023-04-25T16:37:38.169Z,55.08
2023-04-25T16:39:43.598Z,54.23
2023-04-25T16:41:49.469Z,53.89
2023-04-25T16:43:54.804Z,52.65
2023-04-25T16:45:59.860Z,52.16
2023-04-25T16:48:04.829Z,53.36
2023-04-25T16:50:13.634Z,52.61
2023-04-25T16:52:24.058Z,52.48
2023-04-25T16:54:30.095Z,52.59
2023-04-25T16:56:35.481Z,54.90
2023-04-25T16:58:44.326Z,55.44
2023-04-25T17:00:50.168Z,55.30
2023-04-25T17:02:55.562Z,56.40
2023-04-25T17:05:02.182Z,56.68
2023-04-25T17:07:07.475Z,56.16
2023-04-25T17:09:19.026Z,56.73
2023-04-25T17:11:24.406Z,56.40
2023-04-25T17:13:31.849Z,56.93
2023-04-25T17:15:38.079Z,56.97
2023-04-25T17:17:43.855Z,57.69
2023-04-25T17:19:50.393Z,57.54
2023-04-25T17:21:55.440Z,57.54
2023-04-25T17:24:01.136Z,57.39
2023-04-25T17:26:09.942Z,57.40
2023-04-25T17:28:15.843Z,58.04
2023-04-25T17:30:23.943Z,60.09
2023-04-25T17:32:30.603Z,60.82
2023-04-25T17:34:37.887Z,61.93
2023-04-25T17:36:44.035Z,62.30
2023-04-25T17:38:52.918Z,62.23
2023-04-25T17:40:58.836Z,62.79
2023-04-25T17:43:06.601Z,62.36
2023-04-25T17:45:13.595Z,62.21
2023-04-25T17:47:19.494Z,62.73
2023-04-25T17:49:24.577Z,62.74
2023-04-25T17:51:29.589Z,62.45
2023-04-25T17:53:34.411Z,63.22
2023-04-25T17:55:41.948Z,63.28
2023-04-25T17:57:49.285Z,62.93
2023-04-25T17:59:59.134Z,62.49
2023-04-25T18:02:04.248Z,62.57
2023-04-25T18:04:09.936Z,62.61
2023-04-25T18:06:16.034Z,62.50
2023-04-25T18:08:22.460Z,62.85
2023-04-25T18:10:27.439Z,62.43
2023-04-25T18:12:33.580Z,62.53
2023-04-25T18:14:38.583Z,62.26
2023-04-25T18:16:49.848Z,62.51
2023-04-25T18:18:55.844Z,60.83
2023-04-25T18:21:01.385Z,60.50
2023-04-25T18:23:06.948Z,60.56
2023-04-25T18:25:14.495Z,60.92
2023-04-25T18:27:26.809Z,61.66
2023-04-25T18:29:33.913Z,62.11
2023-04-25T18:31:39.800Z,62.06
2023-04-25T18:33:49.477Z,62.66
2023-04-25T18:35:59.420Z,63.01
2023-04-25T18:38:05.117Z,63.30
2023-04-25T18:40:14.247Z,63.74
2023-04-25T18:42:19.773Z,64.22
2023-04-25T18:44:24.584Z,63.95
2023-04-25T18:46:29.996Z,64.16
2023-04-25T18:48:35.245Z,64.30
2023-04-25T18:50:44.995Z,64.26
2023-04-25T18:52:50.002Z,63.87
2023-04-25T18:54:55.472Z,63.68
2023-04-25T18:57:01.392Z,63.67
2023-04-25T18:59:06.964Z,63.82
2023-04-25T19:01:11.907Z,63.78
2023-04-25T19:03:17.607Z,63.96
2023-04-25T19:05:23.685Z,63.97
2023-04-25T19:07:32.592Z,64.30
2023-04-25T19:09:37.936Z,64.27
2023-04-25T19:11:43.196Z,64.59
2023-04-25T19:13:51.209Z,65.03
2023-04-25T19:15:57.923Z,65.50
2023-04-25T19:18:03.065Z,65.61
2023-04-25T19:20:09.921Z,65.44
2023-04-25T19:22:14.858Z,65.30
2023-04-25T19:24:22.882Z,65.82
2023-04-25T19:26:27.945Z,65.98
2023-04-25T19:28:33.063Z,66.13
2023-04-25T19:30:38.184Z,66.38
2023-04-25T19:32:43.161Z,66.48
2023-04-25T19:34:48.594Z,66.08
2023-04-25T19:36:55.908Z,66.88
2023-04-25T19:39:03.196Z,66.63
2023-04-25T19:41:10.705Z,67.08
2023-04-25T19:43:16.838Z,66.93
2023-04-25T19:45:24.635Z,67.30
2023-04-25T19:47:30.155Z,67.60
2023-04-25T19:49:35.172Z,67.33
2023-04-25T19:51:43.240Z,67.56
2023-04-25T19:53:48.986Z,67.69
2023-04-25T19:55:54.663Z,67.53
2023-04-25T19:58:03.553Z,67.87
2023-04-25T20:00:12.271Z,67.57
2023-04-25T20:02:21.749Z,67.91
2023-04-25T20:04:26.760Z,67.93
2023-04-25T20:06:32.969Z,68.09
2023-04-25T20:08:38.684Z,67.99
2023-04-25T20:10:43.656Z,67.99
2023-04-25T20:12:49.320Z,68.23
2023-04-25T20:14:58.709Z,68.07
2023-04-25T20:17:04.744Z,68.59
2023-04-25T20:19:09.709Z,69.05
2023-04-25T20:21:14.814Z,69.17
2023-04-25T20:23:20.047Z,69.88
2023-04-25T20:25:25.502Z,69.35
2023-04-25T20:27:31.013Z,69.22
2023-04-25T20:29:36.650Z,69.49
2023-04-25T20:31:44.347Z,69.65
2023-04-25T20:33:53.603Z,70.28
2023-04-25T20:35:58.755Z,70.71
2023-04-25T20:38:03.671Z,71.42
2023-04-25T20:40:12.093Z,70.59
2023-04-25T20:42:16.945Z,70.47
2023-04-25T20:44:23.928Z,71.49
2023-04-25T20:46:31.909Z,71.60
2023-04-25T20:48:39.278Z,72.17
2023-04-25T20:50:44.276Z,72.04
2023-04-25T20:52:49.895Z,71.21
2023-04-25T20:54:55.222Z,71.39
2023-04-25T20:57:00.505Z,71.47
2023-04-25T20:59:07.919Z,72.88
2023-04-25T21:01:12.888Z,72.61
2023-04-25T21:03:21.429Z,72.68
2023-04-25T21:05:29.190Z,72.74
2023-04-25T21:07:34.068Z,72.76
2023-04-25T21:09:38.914Z,73.46
2023-04-25T21:11:46.025Z,73.32
2023-04-25T21:13:52.744Z,74.07
2023-04-25T21:15:57.687Z,73.65
2023-04-25T21:18:02.631Z,74.32
2023-04-25T21:20:11.023Z,73.58
2023-04-25T21:22:18.751Z,73.88
2023-04-25T21:24:27.531Z,73.64
2023-04-25T21:26:32.289Z,73.31
2023-04-25T21:28:37.159Z,74.24
2023-04-25T21:30:42.698Z,75.18
2023-04-25T21:32:51.973Z,75.92
2023-04-25T21:34:57.076Z,75.79
2023-04-25T21:37:01.995Z,75.22
2023-04-25T21:39:11.018Z,72.50
2023-04-25T21:41:15.937Z,68.28
2023-04-25T21:43:24.652Z,67.61
2023-04-25T21:45:29.788Z,69.25
2023-04-25T21:48:00.285Z,69.79
2023-04-25T21:50:15.482Z,69.87
2023-04-25T21:52:21.766Z,70.44
2023-04-25T21:54:37.100Z,72.36
2023-04-25T21:56:42.913Z,72.62
2023-04-25T21:58:48.914Z,73.59
2023-04-25T22:00:53.952Z,73.42
2023-04-25T22:03:00.450Z,74.57
2023-04-25T22:05:05.608Z,74.58
2023-04-25T22:07:10.466Z,74.53
2023-04-25T22:09:16.549Z,75.58
2023-04-25T22:11:26.884Z,76.13
2023-04-25T22:13:33.705Z,75.50
2023-04-25T22:15:42.198Z,76.56
2023-04-25T22:20:14.410Z,76.96
2023-04-25T22:22:28.868Z,76.28
2023-04-25T22:24:38.650Z,77.12
2023-04-25T22:27:01.930Z,78.11
2023-04-25T22:29:20.920Z,77.12
2023-04-25T22:31:31.257Z,76.88
2023-04-25T22:33:38.848Z,76.99
2023-04-25T22:35:47.691Z,76.85
2023-04-25T22:37:57.151Z,77.69
2023-04-25T22:40:10.584Z,77.49
2023-04-25T22:42:31.627Z,78.10
2023-04-25T22:44:42.498Z,79.53
2023-04-25T22:46:58.922Z,78.83
2023-04-25T22:49:11.414Z,78.67
2023-04-25T22:51:33.329Z,78.31
2023-04-25T22:53:53.511Z,79.94
2023-04-25T22:56:03.876Z,80.28
2023-04-25T22:58:25.401Z,80.00
2023-04-25T23:00:36.683Z,80.03
2023-04-25T23:02:50.411Z,79.16
2023-04-25T23:05:00.394Z,78.60
2023-04-25T23:07:13.868Z,77.17
2023-04-25T23:09:20.761Z,76.88
2023-04-25T23:11:27.139Z,76.16
2023-04-25T23:13:41.602Z,76.04
2023-04-25T23:15:58.402Z,75.03
2023-04-25T23:18:09.477Z,75.63
2023-04-25T23:20:22.671Z,75.63
2023-04-25T23:22:27.556Z,75.29
2023-04-25T23:24:43.900Z,75.47
2023-04-25T23:26:59.748Z,75.56
2023-04-25T23:29:12.754Z,76.38
2023-04-25T23:31:32.547Z,77.15
2023-04-25T23:33:41.489Z,76.68
2023-04-25T23:35:54.096Z,77.22
2023-04-25T23:38:06.608Z,77.01
2023-04-25T23:40:20.271Z,78.33
2023-04-25T23:42:34.584Z,80.40
2023-04-25T23:44:55.426Z,79.38
2023-04-25T23:47:02.306Z,78.76
2023-04-25T23:49:12.888Z,80.16
2023-04-25T23:51:21.727Z,78.62
2023-04-25T23:53:29.552Z,79.94
2023-04-25T23:55:39.385Z,78.36
2023-04-25T23:57:49.208Z,78.96
